sensor_id;sensor_type;location;lat;lon;timestamp;temperature;humidity
11454;DHT22;5783;55.174;61.310;2024-02-14T00:02:00;27.60;14.20
11454;DHT22;5783;55.174;61.310;2024-02-14T00:04:50;27.60;14.20
11454;DHT22;5783;55.174;61.310;2024-02-14T00:07:20;27.60;14.20
11454;DHT22;5783;55.174;61.310;2024-02-14T00:09:49;27.50;14.10
11454;DHT22;5783;55.174;61.310;2024-02-14T00:12:17;27.50;14.10
11454;DHT22;5783;55.174;61.310;2024-02-14T00:14:45;27.50;14.20
11454;DHT22;5783;55.174;61.310;2024-02-14T00:17:15;27.50;14.20
11454;DHT22;5783;55.174;61.310;2024-02-14T00:19:44;27.40;14.10
11454;DHT22;5783;55.174;61.310;2024-02-14T00:22:12;27.50;14.20
11454;DHT22;5783;55.174;61.310;2024-02-14T00:24:43;27.50;14.20
11454;DHT22;5783;55.174;61.310;2024-02-14T00:27:11;27.40;14.10
11454;DHT22;5783;55.174;61.310;2024-02-14T00:29:42;27.40;14.10
11454;DHT22;5783;55.174;61.310;2024-02-14T00:32:12;27.40;14.10
11454;DHT22;5783;55.174;61.310;2024-02-14T00:34:42;27.40;14.20
11454;DHT22;5783;55.174;61.310;2024-02-14T00:37:12;27.40;13.70
11454;DHT22;5783;55.174;61.310;2024-02-14T00:42:32;27.50;14.20
11454;DHT22;5783;55.174;61.310;2024-02-14T00:45:01;27.50;13.70
11454;DHT22;5783;55.174;61.310;2024-02-14T00:47:52;27.50;13.70
11454;DHT22;5783;55.174;61.310;2024-02-14T00:50:20;27.50;14.10
11454;DHT22;5783;55.174;61.310;2024-02-14T00:52:49;27.50;14.10
11454;DHT22;5783;55.174;61.310;2024-02-14T00:55:18;27.50;14.10
11454;DHT22;5783;55.174;61.310;2024-02-14T00:57:47;27.50;14.10
11454;DHT22;5783;55.174;61.310;2024-02-14T01:00:16;27.50;14.10
11454;DHT22;5783;55.174;61.310;2024-02-14T01:02:45;27.60;14.10
11454;DHT22;5783;55.174;61.310;2024-02-14T01:05:14;27.60;14.00
11454;DHT22;5783;55.174;61.310;2024-02-14T01:07:44;27.60;14.00
11454;DHT22;5783;55.174;61.310;2024-02-14T01:10:13;27.60;13.90
11454;DHT22;5783;55.174;61.310;2024-02-14T01:12:42;27.60;14.10
11454;DHT22;5783;55.174;61.310;2024-02-14T01:15:11;27.60;13.40
11454;DHT22;5783;55.174;61.310;2024-02-14T01:17:40;27.70;14.00
11454;DHT22;5783;55.174;61.310;2024-02-14T01:20:10;27.70;14.00
11454;DHT22;5783;55.174;61.310;2024-02-14T01:22:38;27.70;13.90
11454;DHT22;5783;55.174;61.310;2024-02-14T01:25:09;27.70;13.90
11454;DHT22;5783;55.174;61.310;2024-02-14T01:27:37;27.70;13.90
11454;DHT22;5783;55.174;61.310;2024-02-14T01:30:08;27.70;14.00
11454;DHT22;5783;55.174;61.310;2024-02-14T01:32:38;27.70;14.00
11454;DHT22;5783;55.174;61.310;2024-02-14T01:35:07;27.70;14.00
11454;DHT22;5783;55.174;61.310;2024-02-14T01:37:36;27.70;14.10
11454;DHT22;5783;55.174;61.310;2024-02-14T01:40:23;27.70;14.00
11454;DHT22;5783;55.174;61.310;2024-02-14T01:42:54;27.70;14.00
11454;DHT22;5783;55.174;61.310;2024-02-14T01:45:23;27.70;14.00
11454;DHT22;5783;55.174;61.310;2024-02-14T01:47:54;27.70;13.60
11454;DHT22;5783;55.174;61.310;2024-02-14T01:50:23;27.70;14.20
11454;DHT22;5783;55.174;61.310;2024-02-14T01:52:55;27.70;14.10
11454;DHT22;5783;55.174;61.310;2024-02-14T01:55:26;27.60;14.10
11454;DHT22;5783;55.174;61.310;2024-02-14T01:57:57;27.60;14.10
11454;DHT22;5783;55.174;61.310;2024-02-14T02:00:26;27.60;14.10
11454;DHT22;5783;55.174;61.310;2024-02-14T02:02:55;27.60;14.10
11454;DHT22;5783;55.174;61.310;2024-02-14T02:05:24;27.60;14.10
11454;DHT22;5783;55.174;61.310;2024-02-14T02:07:53;27.60;14.10
11454;DHT22;5783;55.174;61.310;2024-02-14T02:10:22;27.60;14.20
11454;DHT22;5783;55.174;61.310;2024-02-14T02:15:47;27.60;14.20
11454;DHT22;5783;55.174;61.310;2024-02-14T02:18:19;27.60;14.20
11454;DHT22;5783;55.174;61.310;2024-02-14T02:20:52;27.60;14.20
11454;DHT22;5783;55.174;61.310;2024-02-14T02:23:21;27.60;14.20
11454;DHT22;5783;55.174;61.310;2024-02-14T02:25:51;27.60;14.20
11454;DHT22;5783;55.174;61.310;2024-02-14T02:28:22;27.60;14.20
11454;DHT22;5783;55.174;61.310;2024-02-14T02:30:52;27.60;14.20
11454;DHT22;5783;55.174;61.310;2024-02-14T02:33:23;27.60;14.20
11454;DHT22;5783;55.174;61.310;2024-02-14T02:35:53;27.70;14.20
11454;DHT22;5783;55.174;61.310;2024-02-14T02:38:24;27.70;14.20
11454;DHT22;5783;55.174;61.310;2024-02-14T02:40:55;27.70;14.20
11454;DHT22;5783;55.174;61.310;2024-02-14T02:43:45;27.60;14.20
11454;DHT22;5783;55.174;61.310;2024-02-14T02:46:33;27.60;14.20
11454;DHT22;5783;55.174;61.310;2024-02-14T02:49:22;27.60;13.70
11454;DHT22;5783;55.174;61.310;2024-02-14T02:51:52;27.60;14.20
11454;DHT22;5783;55.174;61.310;2024-02-14T02:54:23;27.60;14.20
11454;DHT22;5783;55.174;61.310;2024-02-14T02:56:53;27.60;14.10
11454;DHT22;5783;55.174;61.310;2024-02-14T02:59:21;27.70;14.20
11454;DHT22;5783;55.174;61.310;2024-02-14T03:01:51;27.70;14.10
11454;DHT22;5783;55.174;61.310;2024-02-14T03:04:21;27.70;14.10
11454;DHT22;5783;55.174;61.310;2024-02-14T03:06:52;27.80;14.10
11454;DHT22;5783;55.174;61.310;2024-02-14T03:09:23;27.80;14.10
11454;DHT22;5783;55.174;61.310;2024-02-14T03:11:55;27.80;13.60
11454;DHT22;5783;55.174;61.310;2024-02-14T03:14:28;27.80;14.00
11454;DHT22;5783;55.174;61.310;2024-02-14T03:17:01;27.80;14.00
11454;DHT22;5783;55.174;61.310;2024-02-14T03:19:30;27.10;14.70
11454;DHT22;5783;55.174;61.310;2024-02-14T03:22:00;27.80;13.50
11454;DHT22;5783;55.174;61.310;2024-02-14T03:24:32;27.80;14.10
11454;DHT22;5783;55.174;61.310;2024-02-14T03:27:03;27.80;14.00
11454;DHT22;5783;55.174;61.310;2024-02-14T03:29:33;27.80;13.90
11454;DHT22;5783;55.174;61.310;2024-02-14T03:32:04;27.70;13.40
11454;DHT22;5783;55.174;61.310;2024-02-14T03:34:34;27.70;13.90
11454;DHT22;5783;55.174;61.310;2024-02-14T03:37:04;27.70;13.90
11454;DHT22;5783;55.174;61.310;2024-02-14T03:39:33;27.70;13.90
11454;DHT22;5783;55.174;61.310;2024-02-14T03:42:03;27.80;13.90
11454;DHT22;5783;55.174;61.310;2024-02-14T03:44:33;28.20;21.00
11454;DHT22;5783;55.174;61.310;2024-02-14T03:47:04;27.70;13.40
11454;DHT22;5783;55.174;61.310;2024-02-14T03:49:32;27.70;13.90
11454;DHT22;5783;55.174;61.310;2024-02-14T03:52:01;27.70;13.90
11454;DHT22;5783;55.174;61.310;2024-02-14T03:54:32;27.70;13.90
11454;DHT22;5783;55.174;61.310;2024-02-14T03:57:05;27.70;13.40
11454;DHT22;5783;55.174;61.310;2024-02-14T03:59:54;27.70;13.60
11454;DHT22;5783;55.174;61.310;2024-02-14T04:02:23;27.70;21.00
11454;DHT22;5783;55.174;61.310;2024-02-14T04:04:52;27.80;13.50
11454;DHT22;5783;55.174;61.310;2024-02-14T04:07:21;27.70;14.30
11454;DHT22;5783;55.174;61.310;2024-02-14T04:09:50;27.70;13.80
11454;DHT22;5783;55.174;61.310;2024-02-14T04:12:19;27.40;15.80
11454;DHT22;5783;55.174;61.310;2024-02-14T04:14:48;27.80;14.20
11454;DHT22;5783;55.174;61.310;2024-02-14T04:17:18;27.90;14.20
11454;DHT22;5783;55.174;61.310;2024-02-14T04:19:46;27.90;14.10
11454;DHT22;5783;55.174;61.310;2024-02-14T04:22:15;28.00;14.10
11454;DHT22;5783;55.174;61.310;2024-02-14T04:24:44;28.00;13.40
11454;DHT22;5783;55.174;61.310;2024-02-14T04:27:13;28.00;13.90
11454;DHT22;5783;55.174;61.310;2024-02-14T04:32:13;28.10;13.20
11454;DHT22;5783;55.174;61.310;2024-02-14T04:34:42;28.10;13.50
11454;DHT22;5783;55.174;61.310;2024-02-14T04:37:11;28.10;13.40
11454;DHT22;5783;55.174;61.310;2024-02-14T04:39:41;28.10;13.20
11454;DHT22;5783;55.174;61.310;2024-02-14T04:42:10;28.10;13.20
11454;DHT22;5783;55.174;61.310;2024-02-14T04:44:39;28.00;12.70
11454;DHT22;5783;55.174;61.310;2024-02-14T04:49:41;27.90;12.40
11454;DHT22;5783;55.174;61.310;2024-02-14T04:52:11;27.80;12.20
11454;DHT22;5783;55.174;61.310;2024-02-14T04:54:40;27.80;12.20
11454;DHT22;5783;55.174;61.310;2024-02-14T04:57:09;28.30;12.40
11454;DHT22;5783;55.174;61.310;2024-02-14T04:59:39;27.60;12.10
11454;DHT22;5783;55.174;61.310;2024-02-14T05:02:08;27.00;12.70
11454;DHT22;5783;55.174;61.310;2024-02-14T05:07:06;27.40;10.40
11454;DHT22;5783;55.174;61.310;2024-02-14T05:09:35;27.40;10.50
11454;DHT22;5783;55.174;61.310;2024-02-14T05:12:05;27.40;10.80
11454;DHT22;5783;55.174;61.310;2024-02-14T05:17:25;27.40;11.40
11454;DHT22;5783;55.174;61.310;2024-02-14T05:19:54;27.40;11.40
11454;DHT22;5783;55.174;61.310;2024-02-14T05:22:24;27.40;11.50
11454;DHT22;5783;55.174;61.310;2024-02-14T05:24:54;27.40;11.50
11454;DHT22;5783;55.174;61.310;2024-02-14T05:27:23;27.30;12.10
11454;DHT22;5783;55.174;61.310;2024-02-14T05:29:52;27.30;10.50
11454;DHT22;5783;55.174;61.310;2024-02-14T05:32:21;27.30;11.00
11454;DHT22;5783;55.174;61.310;2024-02-14T05:34:51;27.30;11.00
11454;DHT22;5783;55.174;61.310;2024-02-14T05:37:21;27.30;11.40
11454;DHT22;5783;55.174;61.310;2024-02-14T05:39:50;27.30;11.00
11454;DHT22;5783;55.174;61.310;2024-02-14T05:42:20;27.30;11.50
11454;DHT22;5783;55.174;61.310;2024-02-14T05:44:50;27.20;11.70
11454;DHT22;5783;55.174;61.310;2024-02-14T05:47:20;27.20;11.70
11454;DHT22;5783;55.174;61.310;2024-02-14T05:49:49;27.20;11.60
11454;DHT22;5783;55.174;61.310;2024-02-14T05:52:18;27.20;11.60
11454;DHT22;5783;55.174;61.310;2024-02-14T05:54:48;27.30;11.70
11454;DHT22;5783;55.174;61.310;2024-02-14T05:57:17;27.30;11.60
11454;DHT22;5783;55.174;61.310;2024-02-14T05:59:47;27.30;11.60
11454;DHT22;5783;55.174;61.310;2024-02-14T06:02:16;27.30;11.40
11454;DHT22;5783;55.174;61.310;2024-02-14T06:04:45;27.30;11.80
11454;DHT22;5783;55.174;61.310;2024-02-14T06:07:14;27.30;11.90
11454;DHT22;5783;55.174;61.310;2024-02-14T06:09:43;27.10;27.50
11454;DHT22;5783;55.174;61.310;2024-02-14T06:12:12;27.30;12.00
11454;DHT22;5783;55.174;61.310;2024-02-14T06:14:41;27.00;10.70
11454;DHT22;5783;55.174;61.310;2024-02-14T06:17:10;26.70;10.70
11454;DHT22;5783;55.174;61.310;2024-02-14T06:19:40;26.70;10.90
11454;DHT22;5783;55.174;61.310;2024-02-14T06:22:09;26.70;11.30
11454;DHT22;5783;55.174;61.310;2024-02-14T06:24:38;26.70;11.50
11454;DHT22;5783;55.174;61.310;2024-02-14T06:27:07;26.80;11.60
11454;DHT22;5783;55.174;61.310;2024-02-14T06:29:36;26.90;11.70
11454;DHT22;5783;55.174;61.310;2024-02-14T06:32:06;26.90;11.60
11454;DHT22;5783;55.174;61.310;2024-02-14T06:34:35;26.90;11.70
11454;DHT22;5783;55.174;61.310;2024-02-14T06:37:04;26.90;11.70
11454;DHT22;5783;55.174;61.310;2024-02-14T06:39:33;27.00;11.80
11454;DHT22;5783;55.174;61.310;2024-02-14T06:42:02;27.00;11.70
11454;DHT22;5783;55.174;61.310;2024-02-14T06:44:32;27.00;11.60
11454;DHT22;5783;55.174;61.310;2024-02-14T06:47:01;27.00;11.60
11454;DHT22;5783;55.174;61.310;2024-02-14T06:49:30;27.10;11.60
11454;DHT22;5783;55.174;61.310;2024-02-14T06:51:59;27.10;11.60
11454;DHT22;5783;55.174;61.310;2024-02-14T06:54:28;26.90;10.70
11454;DHT22;5783;55.174;61.310;2024-02-14T06:56:57;26.60;10.50
11454;DHT22;5783;55.174;61.310;2024-02-14T06:59:27;26.60;11.10
11454;DHT22;5783;55.174;61.310;2024-02-14T07:01:56;26.70;11.60
11454;DHT22;5783;55.174;61.310;2024-02-14T07:04:26;26.70;11.70
11454;DHT22;5783;55.174;61.310;2024-02-14T07:06:55;26.80;11.80
11454;DHT22;5783;55.174;61.310;2024-02-14T07:09:24;26.80;11.80
11454;DHT22;5783;55.174;61.310;2024-02-14T07:11:53;26.90;11.90
11454;DHT22;5783;55.174;61.310;2024-02-14T07:14:24;26.90;11.90
11454;DHT22;5783;55.174;61.310;2024-02-14T07:16:53;26.90;11.90
11454;DHT22;5783;55.174;61.310;2024-02-14T07:19:22;27.00;11.80
11454;DHT22;5783;55.174;61.310;2024-02-14T07:21:51;26.90;12.10
11454;DHT22;5783;55.174;61.310;2024-02-14T07:24:20;26.90;11.90
11454;DHT22;5783;55.174;61.310;2024-02-14T07:26:49;26.90;12.10
11454;DHT22;5783;55.174;61.310;2024-02-14T07:29:19;26.90;11.90
11454;DHT22;5783;55.174;61.310;2024-02-14T07:31:48;26.90;12.20
11454;DHT22;5783;55.174;61.310;2024-02-14T07:34:17;26.90;12.00
11454;DHT22;5783;55.174;61.310;2024-02-14T07:36:46;26.90;11.90
11454;DHT22;5783;55.174;61.310;2024-02-14T07:39:16;26.90;12.10
11454;DHT22;5783;55.174;61.310;2024-02-14T07:41:45;26.90;12.00
11454;DHT22;5783;55.174;61.310;2024-02-14T07:44:14;26.90;12.10
11454;DHT22;5783;55.174;61.310;2024-02-14T07:46:43;26.80;11.40
11454;DHT22;5783;55.174;61.310;2024-02-14T07:49:12;26.80;11.80
11454;DHT22;5783;55.174;61.310;2024-02-14T07:51:42;26.70;11.20
11454;DHT22;5783;55.174;61.310;2024-02-14T07:54:11;26.60;11.30
11454;DHT22;5783;55.174;61.310;2024-02-14T07:56:40;26.60;11.70
11454;DHT22;5783;55.174;61.310;2024-02-14T07:59:09;26.50;11.40
11454;DHT22;5783;55.174;61.310;2024-02-14T08:01:38;26.50;11.40
11454;DHT22;5783;55.174;61.310;2024-02-14T08:04:09;26.40;11.60
11454;DHT22;5783;55.174;61.310;2024-02-14T08:06:58;26.40;11.70
11454;DHT22;5783;55.174;61.310;2024-02-14T08:09:27;26.30;11.40
11454;DHT22;5783;55.174;61.310;2024-02-14T08:11:56;26.20;11.00
11454;DHT22;5783;55.174;61.310;2024-02-14T08:14:25;26.20;11.50
11454;DHT22;5783;55.174;61.310;2024-02-14T08:16:55;26.20;11.00
11454;DHT22;5783;55.174;61.310;2024-02-14T08:19:25;26.20;10.70
11454;DHT22;5783;55.174;61.310;2024-02-14T08:21:54;26.10;11.20
11454;DHT22;5783;55.174;61.310;2024-02-14T08:24:44;26.10;11.60
11454;DHT22;5783;55.174;61.310;2024-02-14T08:27:13;26.00;10.70
11454;DHT22;5783;55.174;61.310;2024-02-14T08:29:43;25.90;11.20
11454;DHT22;5783;55.174;61.310;2024-02-14T08:32:12;26.00;11.80
11454;DHT22;5783;55.174;61.310;2024-02-14T08:34:41;26.10;11.80
11454;DHT22;5783;55.174;61.310;2024-02-14T08:37:10;26.10;11.70
11454;DHT22;5783;55.174;61.310;2024-02-14T08:39:39;26.10;11.80
11454;DHT22;5783;55.174;61.310;2024-02-14T08:42:08;26.10;11.90
11454;DHT22;5783;55.174;61.310;2024-02-14T08:44:38;26.10;11.80
11454;DHT22;5783;55.174;61.310;2024-02-14T08:47:07;26.30;11.80
11454;DHT22;5783;55.174;61.310;2024-02-14T08:49:36;26.20;11.60
11454;DHT22;5783;55.174;61.310;2024-02-14T08:52:05;26.30;11.70
11454;DHT22;5783;55.174;61.310;2024-02-14T08:54:35;26.30;11.60
11454;DHT22;5783;55.174;61.310;2024-02-14T08:57:04;26.40;11.50
11454;DHT22;5783;55.174;61.310;2024-02-14T08:59:33;26.50;11.70
11454;DHT22;5783;55.174;61.310;2024-02-14T09:02:03;26.50;11.60
11454;DHT22;5783;55.174;61.310;2024-02-14T09:04:32;26.60;11.60
11454;DHT22;5783;55.174;61.310;2024-02-14T09:07:02;26.60;11.60
11454;DHT22;5783;55.174;61.310;2024-02-14T09:09:31;26.60;11.60
11454;DHT22;5783;55.174;61.310;2024-02-14T09:12:00;26.60;11.90
11454;DHT22;5783;55.174;61.310;2024-02-14T09:14:29;26.60;11.90
11454;DHT22;5783;55.174;61.310;2024-02-14T09:16:59;26.50;11.80
11454;DHT22;5783;55.174;61.310;2024-02-14T09:19:28;26.50;11.80
11454;DHT22;5783;55.174;61.310;2024-02-14T09:21:57;26.40;11.80
11454;DHT22;5783;55.174;61.310;2024-02-14T09:24:26;26.30;11.80
11454;DHT22;5783;55.174;61.310;2024-02-14T09:26:55;26.30;11.90
11454;DHT22;5783;55.174;61.310;2024-02-14T09:32:14;26.20;11.90
11454;DHT22;5783;55.174;61.310;2024-02-14T09:34:43;26.20;11.90
11454;DHT22;5783;55.174;61.310;2024-02-14T09:37:12;26.40;11.90
11454;DHT22;5783;55.174;61.310;2024-02-14T09:39:43;26.50;11.80
11454;DHT22;5783;55.174;61.310;2024-02-14T09:42:13;26.60;11.80
11454;DHT22;5783;55.174;61.310;2024-02-14T09:44:46;26.60;11.80
11454;DHT22;5783;55.174;61.310;2024-02-14T09:47:16;26.70;11.80
11454;DHT22;5783;55.174;61.310;2024-02-14T09:49:46;26.70;11.60
11454;DHT22;5783;55.174;61.310;2024-02-14T09:52:16;26.70;11.60
11454;DHT22;5783;55.174;61.310;2024-02-14T09:54:47;26.70;11.60
11454;DHT22;5783;55.174;61.310;2024-02-14T09:57:17;26.70;11.50
11454;DHT22;5783;55.174;61.310;2024-02-14T09:59:47;26.80;11.50
11454;DHT22;5783;55.174;61.310;2024-02-14T10:02:17;26.80;11.60
11454;DHT22;5783;55.174;61.310;2024-02-14T10:04:46;26.80;11.60
11454;DHT22;5783;55.174;61.310;2024-02-14T10:07:15;26.80;11.70
11454;DHT22;5783;55.174;61.310;2024-02-14T10:09:44;26.60;11.70
11454;DHT22;5783;55.174;61.310;2024-02-14T10:12:15;26.40;11.80
11454;DHT22;5783;55.174;61.310;2024-02-14T10:14:44;26.40;11.90
11454;DHT22;5783;55.174;61.310;2024-02-14T10:17:33;26.30;11.90
11454;DHT22;5783;55.174;61.310;2024-02-14T10:20:03;26.30;12.20
11454;DHT22;5783;55.174;61.310;2024-02-14T10:23:00;26.30;12.20
11454;DHT22;5783;55.174;61.310;2024-02-14T10:25:24;26.40;11.90
11454;DHT22;5783;55.174;61.310;2024-02-14T10:27:53;26.50;11.80
11454;DHT22;5783;55.174;61.310;2024-02-14T10:30:22;26.60;11.80
11454;DHT22;5783;55.174;61.310;2024-02-14T10:32:51;26.70;11.60
11454;DHT22;5783;55.174;61.310;2024-02-14T10:35:20;26.70;11.60
11454;DHT22;5783;55.174;61.310;2024-02-14T10:37:50;26.70;11.70
11454;DHT22;5783;55.174;61.310;2024-02-14T10:40:20;26.70;11.60
11454;DHT22;5783;55.174;61.310;2024-02-14T10:42:51;26.70;11.50
11454;DHT22;5783;55.174;61.310;2024-02-14T10:45:21;26.70;11.50
11454;DHT22;5783;55.174;61.310;2024-02-14T10:47:55;26.70;11.60
11454;DHT22;5783;55.174;61.310;2024-02-14T10:50:28;26.60;11.50
11454;DHT22;5783;55.174;61.310;2024-02-14T10:53:02;26.60;11.40
11454;DHT22;5783;55.174;61.310;2024-02-14T10:55:33;26.70;11.40
11454;DHT22;5783;55.174;61.310;2024-02-14T10:58:02;26.70;11.40
11454;DHT22;5783;55.174;61.310;2024-02-14T11:00:32;26.70;11.50
11454;DHT22;5783;55.174;61.310;2024-02-14T11:03:02;26.80;11.30
11454;DHT22;5783;55.174;61.310;2024-02-14T11:05:42;26.70;11.60
11454;DHT22;5783;55.174;61.310;2024-02-14T11:08:22;26.70;11.40
11454;DHT22;5783;55.174;61.310;2024-02-14T11:10:56;26.70;10.90
11454;DHT22;5783;55.174;61.310;2024-02-14T11:13:45;26.70;11.20
11454;DHT22;5783;55.174;61.310;2024-02-14T11:16:14;26.80;11.40
11454;DHT22;5783;55.174;61.310;2024-02-14T11:18:43;26.90;11.40
11454;DHT22;5783;55.174;61.310;2024-02-14T11:21:34;26.90;11.40
11454;DHT22;5783;55.174;61.310;2024-02-14T11:24:05;26.90;11.40
11454;DHT22;5783;55.174;61.310;2024-02-14T11:26:56;26.90;11.40
11454;DHT22;5783;55.174;61.310;2024-02-14T11:32:33;26.90;11.70
11454;DHT22;5783;55.174;61.310;2024-02-14T11:35:03;26.80;11.60
11454;DHT22;5783;55.174;61.310;2024-02-14T11:37:34;26.80;11.50
11454;DHT22;5783;55.174;61.310;2024-02-14T11:40:03;26.70;11.50
11454;DHT22;5783;55.174;61.310;2024-02-14T11:42:34;26.70;11.60
11454;DHT22;5783;55.174;61.310;2024-02-14T11:45:03;26.60;11.60
11454;DHT22;5783;55.174;61.310;2024-02-14T11:47:33;26.60;11.50
11454;DHT22;5783;55.174;61.310;2024-02-14T11:50:06;26.60;11.40
11454;DHT22;5783;55.174;61.310;2024-02-14T11:52:37;26.50;11.40
11454;DHT22;5783;55.174;61.310;2024-02-14T11:55:06;26.50;11.40
11454;DHT22;5783;55.174;61.310;2024-02-14T11:57:36;26.30;11.40
11454;DHT22;5783;55.174;61.310;2024-02-14T12:00:06;26.40;11.80
11454;DHT22;5783;55.174;61.310;2024-02-14T12:02:38;26.40;11.70
11454;DHT22;5783;55.174;61.310;2024-02-14T12:05:08;26.60;11.60
11454;DHT22;5783;55.174;61.310;2024-02-14T12:07:37;26.60;11.60
11454;DHT22;5783;55.174;61.310;2024-02-14T12:10:09;26.60;11.50
11454;DHT22;5783;55.174;61.310;2024-02-14T12:12:39;26.70;11.40
11454;DHT22;5783;55.174;61.310;2024-02-14T12:15:10;26.70;11.30
11454;DHT22;5783;55.174;61.310;2024-02-14T12:17:41;26.60;11.30
11454;DHT22;5783;55.174;61.310;2024-02-14T12:20:10;26.70;11.30
11454;DHT22;5783;55.174;61.310;2024-02-14T12:22:41;26.70;11.30
11454;DHT22;5783;55.174;61.310;2024-02-14T12:25:10;26.70;11.50
11454;DHT22;5783;55.174;61.310;2024-02-14T12:27:39;26.70;11.50
11454;DHT22;5783;55.174;61.310;2024-02-14T12:30:08;26.60;11.40
11454;DHT22;5783;55.174;61.310;2024-02-14T12:32:37;26.60;11.60
11454;DHT22;5783;55.174;61.310;2024-02-14T12:35:07;26.60;11.80
11454;DHT22;5783;55.174;61.310;2024-02-14T12:37:37;26.60;11.90
11454;DHT22;5783;55.174;61.310;2024-02-14T12:40:07;26.70;12.30
11454;DHT22;5783;55.174;61.310;2024-02-14T12:42:56;26.70;11.60
11454;DHT22;5783;55.174;61.310;2024-02-14T12:45:25;26.60;11.40
11454;DHT22;5783;55.174;61.310;2024-02-14T12:47:54;26.60;11.40
11454;DHT22;5783;55.174;61.310;2024-02-14T12:50:23;26.60;11.00
11454;DHT22;5783;55.174;61.310;2024-02-14T12:52:52;26.60;11.00
11454;DHT22;5783;55.174;61.310;2024-02-14T12:55:22;26.60;11.00
11454;DHT22;5783;55.174;61.310;2024-02-14T12:57:52;26.60;10.90
11454;DHT22;5783;55.174;61.310;2024-02-14T13:00:21;26.60;11.00
11454;DHT22;5783;55.174;61.310;2024-02-14T13:02:51;26.60;11.00
11454;DHT22;5783;55.174;61.310;2024-02-14T13:05:53;26.60;10.90
11454;DHT22;5783;55.174;61.310;2024-02-14T13:07:52;26.70;11.00
11454;DHT22;5783;55.174;61.310;2024-02-14T13:10:22;26.60;10.60
11454;DHT22;5783;55.174;61.310;2024-02-14T13:12:51;26.60;10.40
11454;DHT22;5783;55.174;61.310;2024-02-14T13:15:20;26.50;10.80
11454;DHT22;5783;55.174;61.310;2024-02-14T13:17:50;26.60;10.90
11454;DHT22;5783;55.174;61.310;2024-02-14T13:20:19;26.60;10.80
11454;DHT22;5783;55.174;61.310;2024-02-14T13:22:49;26.60;11.10
11454;DHT22;5783;55.174;61.310;2024-02-14T13:25:18;26.50;11.10
11454;DHT22;5783;55.174;61.310;2024-02-14T13:27:48;26.50;11.20
11454;DHT22;5783;55.174;61.310;2024-02-14T13:30:17;26.40;11.30
11454;DHT22;5783;55.174;61.310;2024-02-14T13:32:46;26.40;11.60
11454;DHT22;5783;55.174;61.310;2024-02-14T13:35:15;26.50;11.50
11454;DHT22;5783;55.174;61.310;2024-02-14T13:37:45;26.60;11.40
11454;DHT22;5783;55.174;61.310;2024-02-14T13:40:15;26.60;11.30
11454;DHT22;5783;55.174;61.310;2024-02-14T13:42:46;26.60;11.40
11454;DHT22;5783;55.174;61.310;2024-02-14T13:45:15;26.60;11.30
11454;DHT22;5783;55.174;61.310;2024-02-14T13:47:44;26.60;11.00
11454;DHT22;5783;55.174;61.310;2024-02-14T13:50:13;26.60;11.00
11454;DHT22;5783;55.174;61.310;2024-02-14T13:52:42;26.70;11.40
11454;DHT22;5783;55.174;61.310;2024-02-14T13:55:12;26.60;11.30
11454;DHT22;5783;55.174;61.310;2024-02-14T13:57:41;26.70;11.20
11454;DHT22;5783;55.174;61.310;2024-02-14T14:00:10;26.70;11.00
11454;DHT22;5783;55.174;61.310;2024-02-14T14:02:39;26.60;11.00
11454;DHT22;5783;55.174;61.310;2024-02-14T14:05:10;26.60;11.00
11454;DHT22;5783;55.174;61.310;2024-02-14T14:07:40;26.60;11.00
11454;DHT22;5783;55.174;61.310;2024-02-14T14:10:10;26.50;11.10
11454;DHT22;5783;55.174;61.310;2024-02-14T14:12:39;26.50;11.10
11454;DHT22;5783;55.174;61.310;2024-02-14T14:15:08;26.40;11.00
11454;DHT22;5783;55.174;61.310;2024-02-14T14:17:37;26.50;11.10
11454;DHT22;5783;55.174;61.310;2024-02-14T14:20:07;26.40;11.00
11454;DHT22;5783;55.174;61.310;2024-02-14T14:22:36;26.50;11.40
11454;DHT22;5783;55.174;61.310;2024-02-14T14:25:05;26.50;11.30
11454;DHT22;5783;55.174;61.310;2024-02-14T14:27:35;26.60;11.00
11454;DHT22;5783;55.174;61.310;2024-02-14T14:30:05;26.60;11.00
11454;DHT22;5783;55.174;61.310;2024-02-14T14:32:35;26.60;11.10
11454;DHT22;5783;55.174;61.310;2024-02-14T14:35:04;26.50;10.60
11454;DHT22;5783;55.174;61.310;2024-02-14T14:37:36;26.50;11.10
11454;DHT22;5783;55.174;61.310;2024-02-14T14:40:05;26.40;11.10
11454;DHT22;5783;55.174;61.310;2024-02-14T14:42:36;26.50;11.20
11454;DHT22;5783;55.174;61.310;2024-02-14T14:45:06;26.50;11.20
11454;DHT22;5783;55.174;61.310;2024-02-14T14:47:35;26.60;11.30
11454;DHT22;5783;55.174;61.310;2024-02-14T14:50:05;26.60;11.50
11454;DHT22;5783;55.174;61.310;2024-02-14T14:52:34;26.60;11.50
11454;DHT22;5783;55.174;61.310;2024-02-14T14:57:36;26.40;10.40
11454;DHT22;5783;55.174;61.310;2024-02-14T15:00:27;26.30;10.60
11454;DHT22;5783;55.174;61.310;2024-02-14T15:02:56;26.40;11.50
11454;DHT22;5783;55.174;61.310;2024-02-14T15:05:25;26.40;11.80
11454;DHT22;5783;55.174;61.310;2024-02-14T15:07:54;26.40;11.90
11454;DHT22;5783;55.174;61.310;2024-02-14T15:10:23;26.50;12.20
11454;DHT22;5783;55.174;61.310;2024-02-14T15:12:52;26.60;12.10
11454;DHT22;5783;55.174;61.310;2024-02-14T15:15:22;26.60;12.20
11454;DHT22;5783;55.174;61.310;2024-02-14T15:17:51;26.60;12.20
11454;DHT22;5783;55.174;61.310;2024-02-14T15:20:20;26.70;12.30
11454;DHT22;5783;55.174;61.310;2024-02-14T15:22:49;26.70;12.30
11454;DHT22;5783;55.174;61.310;2024-02-14T15:25:18;26.80;12.40
11454;DHT22;5783;55.174;61.310;2024-02-14T15:27:48;26.80;12.40
11454;DHT22;5783;55.174;61.310;2024-02-14T15:30:37;26.80;12.40
11454;DHT22;5783;55.174;61.310;2024-02-14T15:33:25;26.80;12.50
11454;DHT22;5783;55.174;61.310;2024-02-14T15:35:56;26.80;12.50
11454;DHT22;5783;55.174;61.310;2024-02-14T15:38:26;26.90;12.60
11454;DHT22;5783;55.174;61.310;2024-02-14T15:40:56;26.90;12.50
11454;DHT22;5783;55.174;61.310;2024-02-14T15:43:27;26.90;12.50
11454;DHT22;5783;55.174;61.310;2024-02-14T15:45:59;27.00;12.60
11454;DHT22;5783;55.174;61.310;2024-02-14T15:48:28;27.00;12.60
11454;DHT22;5783;55.174;61.310;2024-02-14T15:50:59;27.00;12.60
11454;DHT22;5783;55.174;61.310;2024-02-14T15:53:28;27.00;12.60
11454;DHT22;5783;55.174;61.310;2024-02-14T15:55:58;27.00;12.60
11454;DHT22;5783;55.174;61.310;2024-02-14T15:58:28;27.00;12.60
11454;DHT22;5783;55.174;61.310;2024-02-14T16:00:57;27.10;12.60
11454;DHT22;5783;55.174;61.310;2024-02-14T16:03:27;27.10;12.60
11454;DHT22;5783;55.174;61.310;2024-02-14T16:05:56;27.10;12.70
11454;DHT22;5783;55.174;61.310;2024-02-14T16:08:25;27.10;12.70
11454;DHT22;5783;55.174;61.310;2024-02-14T16:10:54;27.10;12.70
11454;DHT22;5783;55.174;61.310;2024-02-14T16:13:24;27.10;12.70
11454;DHT22;5783;55.174;61.310;2024-02-14T16:15:53;27.10;12.70